Time;durP1;ratioP1;P1;durP2;ratioP2;P2;SDS_P1;SDS_P2;PMS_P1;PMS_P2;Temp;Humidity;BMP_temperature;BMP_pressure;BME280_temperature;BME280_humidity;BME280_pressure;Samples;Min_cycle;Max_cycle;Signal;HPM_P1;HPM_P2
2022/11/18 00:00:20;;;;;;;6.95;2.28;;;;;;;8.26;100.00;99197.28;5005413;28;20402;-80
2022/11/18 00:02:48;;;;;;;10.45;2.22;;;;;;;8.36;100.00;99210.00;4988460;28;20449;-79
2022/11/18 00:05:14;;;;;;;10.27;2.38;;;;;;;8.31;100.00;99202.28;5021467;28;20061;-80
2022/11/18 00:07:39;;;;;;;14.73;2.60;;;;;;;8.44;100.00;99204.72;5032948;28;20046;-81
2022/11/18 00:10:05;;;;;;;13.52;2.65;;;;;;;8.46;100.00;99208.13;5027903;28;20081;-82
2022/11/18 00:15:14;;;;;;;7.13;2.67;;;;;;;8.45;100.00;99214.63;5028420;28;20057;-82
2022/11/18 00:17:40;;;;;;;9.57;2.35;;;;;;;8.51;100.00;99215.88;5005395;28;20030;-82
2022/11/18 00:20:06;;;;;;;9.32;2.50;;;;;;;8.54;100.00;99213.72;4993510;28;20118;-82
2022/11/18 00:22:31;;;;;;;8.32;2.72;;;;;;;8.53;100.00;99209.28;5008435;28;20041;-82
2022/11/18 00:24:57;;;;;;;4.75;2.35;;;;;;;8.59;100.00;99216.00;5036268;28;20041;-82
2022/11/18 00:27:22;;;;;;;12.25;2.30;;;;;;;8.49;100.00;99205.13;5011574;28;20048;-82
2022/11/18 00:29:48;;;;;;;9.77;2.20;;;;;;;8.58;100.00;99227.94;5042002;28;20033;-82
2022/11/18 00:32:13;;;;;;;7.60;2.42;;;;;;;8.45;100.00;99198.25;5023290;28;20037;-82
2022/11/18 00:34:38;;;;;;;10.38;2.50;;;;;;;8.58;100.00;99220.59;5026202;28;20044;-82
2022/11/18 00:37:04;;;;;;;8.90;2.25;;;;;;;8.68;100.00;99234.19;5016978;28;20059;-81
2022/11/18 00:39:29;;;;;;;5.57;1.85;;;;;;;8.60;100.00;99225.91;5020228;28;20032;-80
2022/11/18 00:44:39;;;;;;;7.38;1.90;;;;;;;8.75;100.00;99229.00;5044430;28;20158;-81
2022/11/18 00:47:04;;;;;;;10.45;2.13;;;;;;;8.75;100.00;99232.59;5011500;28;20034;-81
2022/11/18 00:49:30;;;;;;;8.35;2.40;;;;;;;8.71;100.00;99231.19;4978713;28;20034;-82
2022/11/18 00:51:55;;;;;;;10.05;2.65;;;;;;;8.75;100.00;99238.03;5010406;28;20029;-81
2022/11/18 00:54:21;;;;;;;8.85;2.42;;;;;;;8.74;100.00;99247.25;4991544;28;20473;-81
2022/11/18 00:56:46;;;;;;;10.73;2.90;;;;;;;8.81;100.00;99255.69;5025966;28;20401;-81
2022/11/18 00:59:11;;;;;;;10.82;2.35;;;;;;;8.86;100.00;99256.09;5006226;28;20036;-80
2022/11/18 01:01:37;;;;;;;8.63;2.38;;;;;;;8.81;100.00;99258.44;4982882;28;20112;-81
2022/11/18 01:04:03;;;;;;;8.85;2.58;;;;;;;8.80;100.00;99248.50;5026516;28;20090;-82
2022/11/18 01:06:28;;;;;;;9.25;2.47;;;;;;;8.82;100.00;99260.13;5025124;28;20124;-82
2022/11/18 01:08:54;;;;;;;9.00;2.10;;;;;;;8.88;100.00;99258.69;5024806;28;20163;-81
2022/11/18 01:14:03;;;;;;;9.57;2.38;;;;;;;8.88;100.00;99272.34;5042886;28;20484;-82
2022/11/18 01:16:29;;;;;;;9.18;2.25;;;;;;;8.90;100.00;99276.63;5025058;28;20061;-82
2022/11/18 01:18:55;;;;;;;8.48;2.15;;;;;;;8.88;100.00;99281.38;5023349;28;20474;-81
2022/11/18 01:21:21;;;;;;;6.55;2.40;;;;;;;8.88;100.00;99283.25;5007151;28;20029;-81
2022/11/18 01:23:47;;;;;;;6.28;2.47;;;;;;;8.93;100.00;99283.66;5023860;28;20101;-81
2022/11/18 01:26:14;;;;;;;8.88;2.50;;;;;;;8.85;100.00;99278.94;5007850;28;20041;-81
2022/11/18 01:28:39;;;;;;;9.88;2.20;;;;;;;8.86;100.00;99297.03;5017566;28;20038;-82
2022/11/18 01:31:08;;;;;;;9.88;2.25;;;;;;;8.81;100.00;99294.75;5032863;28;20037;-82
2022/11/18 01:33:33;;;;;;;11.10;2.60;;;;;;;8.87;100.00;99293.31;5007986;28;20044;-82
2022/11/18 01:35:59;;;;;;;8.52;2.08;;;;;;;8.86;100.00;99294.31;5024007;28;20033;-81
2022/11/18 01:38:24;;;;;;;11.23;2.13;;;;;;;8.89;100.00;99304.94;5042118;28;20029;-82
2022/11/18 01:40:50;;;;;;;7.35;1.85;;;;;;;8.88;100.00;99310.53;5041148;28;20053;-80
2022/11/18 01:43:18;;;;;;;12.77;2.35;;;;;;;8.89;100.00;99304.94;5023828;28;20504;-80
2022/11/18 01:45:46;;;;;;;9.73;2.95;;;;;;;8.89;100.00;99313.13;5023899;28;20531;-81
2022/11/18 01:48:11;;;;;;;7.60;2.03;;;;;;;8.91;100.00;99313.81;5023569;28;20040;-80
2022/11/18 01:50:43;;;;;;;11.13;2.10;;;;;;;8.89;100.00;99318.59;5039624;28;20112;-81
2022/11/18 01:53:15;;;;;;;6.47;1.88;;;;;;;8.86;100.00;99315.31;5022751;28;20037;-81
2022/11/18 01:55:45;;;;;;;9.68;2.38;;;;;;;8.93;100.00;99322.72;5023045;28;20021;-79
2022/11/18 01:58:26;;;;;;;4.05;2.20;;;;;;;8.94;100.00;99320.88;5039107;28;20033;-81
2022/11/18 02:00:52;;;;;;;11.75;2.40;;;;;;;8.95;100.00;99326.19;5039907;28;20072;-82
2022/11/18 02:03:17;;;;;;;7.00;1.90;;;;;;;8.98;100.00;99320.41;5024249;28;20034;-82
2022/11/18 02:05:46;;;;;;;10.25;1.90;;;;;;;8.90;100.00;99320.28;4974760;28;20040;-82
2022/11/18 02:08:13;;;;;;;14.40;3.20;;;;;;;8.86;100.00;99318.88;5023857;28;20033;-81
2022/11/18 02:10:39;;;;;;;11.00;2.83;;;;;;;8.90;100.00;99323.00;5009070;28;20042;-81
2022/11/18 02:13:04;;;;;;;8.52;2.25;;;;;;;8.87;100.00;99334.25;4984354;28;20065;-81
2022/11/18 02:15:58;;;;;;;7.93;1.90;;;;;;;8.93;100.00;99339.09;4984386;28;20030;-81
2022/11/18 02:18:46;;;;;;;10.40;2.22;;;;;;;8.90;100.00;99341.28;4998256;28;20090;-81
2022/11/18 02:21:31;;;;;;;14.27;2.53;;;;;;;8.88;100.00;99338.69;4987710;28;20038;-82
2022/11/18 02:23:56;;;;;;;7.95;1.90;;;;;;;8.89;100.00;99339.56;4984644;28;20038;-81
2022/11/18 02:26:22;;;;;;;8.63;1.80;;;;;;;8.87;100.00;99347.91;4985248;28;20042;-81
2022/11/18 02:29:18;;;;;;;7.07;2.10;;;;;;;8.86;100.00;99348.91;4984160;28;20038;-81
2022/11/18 02:31:52;;;;;;;9.75;2.30;;;;;;;8.85;100.00;99343.59;4984476;28;20034;-81
2022/11/18 02:34:32;;;;;;;11.48;1.92;;;;;;;8.90;100.00;99350.31;4999117;28;20173;-82
2022/11/18 02:37:14;;;;;;;7.80;2.42;;;;;;;8.92;100.00;99344.72;5000402;28;20049;-82
2022/11/18 02:39:49;;;;;;;3.60;2.08;;;;;;;8.87;100.00;99342.44;4994092;28;20054;-81
2022/11/18 02:42:15;;;;;;;6.20;1.88;;;;;;;8.88;100.00;99348.75;5000412;28;20037;-82
2022/11/18 02:44:48;;;;;;;13.40;2.13;;;;;;;8.87;100.00;99357.94;4979483;28;20027;-82
2022/11/18 02:47:16;;;;;;;8.73;2.13;;;;;;;8.87;100.00;99356.09;4997359;28;20052;-81
2022/11/18 02:49:46;;;;;;;7.53;2.55;;;;;;;8.95;100.00;99361.66;4996807;28;20039;-82
2022/11/18 02:52:15;;;;;;;8.90;2.45;;;;;;;8.89;100.00;99364.97;4980988;28;20039;-81
2022/11/18 02:54:44;;;;;;;5.72;1.92;;;;;;;8.91;100.00;99365.69;4997067;28;20050;-81
2022/11/18 02:57:12;;;;;;;8.60;1.83;;;;;;;8.89;100.00;99364.97;5003440;28;20045;-81
2022/11/18 02:59:38;;;;;;;6.40;1.88;;;;;;;8.89;100.00;99362.25;4981971;28;20101;-82
2022/11/18 03:02:03;;;;;;;5.40;2.10;;;;;;;8.93;100.00;99369.13;4999534;28;20054;-81
2022/11/18 03:04:30;;;;;;;17.60;2.30;;;;;;;8.86;100.00;99370.72;5000584;28;20038;-82
2022/11/18 03:07:09;;;;;;;6.65;2.28;;;;;;;8.91;100.00;99373.03;4983875;28;20018;-82
2022/11/18 03:09:38;;;;;;;9.07;2.08;;;;;;;8.88;100.00;99373.31;5000340;28;20121;-81
2022/11/18 03:12:19;;;;;;;9.27;2.15;;;;;;;8.89;100.00;99381.34;5022641;28;20093;-81
2022/11/18 03:15:20;;;;;;;9.88;2.40;;;;;;;8.85;100.00;99370.88;5020716;28;20037;-80
2022/11/18 03:18:33;;;;;;;4.55;2.10;;;;;;;8.93;100.00;99380.03;5016134;28;20029;-80
2022/11/18 03:21:10;;;;;;;7.82;1.92;;;;;;;8.89;100.00;99381.34;4920917;29;20036;-81
2022/11/18 03:24:06;;;;;;;11.63;1.88;;;;;;;8.93;100.00;99377.31;4988095;28;20038;-82
2022/11/18 03:26:37;;;;;;;4.28;1.65;;;;;;;8.91;100.00;99390.25;5022290;28;20108;-82
2022/11/18 03:29:20;;;;;;;7.78;2.00;;;;;;;8.94;100.00;99397.31;5004464;28;20032;-81
2022/11/18 03:31:48;;;;;;;;;;;;;;;8.91;100.00;99401.16;5020181;28;20034;-83
2022/11/18 03:34:24;;;;;;;9.98;1.90;;;;;;;8.95;100.00;99399.88;5003568;28;19917;-82
2022/11/18 03:36:55;;;;;;;7.28;2.35;;;;;;;8.95;100.00;99401.72;5022812;28;20044;-81
2022/11/18 03:39:22;;;;;;;7.65;1.80;;;;;;;8.87;100.00;99401.59;5023634;28;20133;-82
2022/11/18 03:41:53;;;;;;;8.55;1.70;;;;;;;8.95;100.00;99409.94;5019628;28;20060;-82
2022/11/18 03:44:25;;;;;;;8.57;2.75;;;;;;;8.94;100.00;99410.94;5006027;28;20013;-81
2022/11/18 03:47:08;;;;;;;6.97;1.80;;;;;;;8.89;100.00;99405.06;5003619;28;20034;-81
2022/11/18 03:49:44;;;;;;;;;;;;;;;8.98;100.00;99420.56;5021079;28;20389;-82
2022/11/18 03:52:17;;;;;;;10.35;2.10;;;;;;;8.95;100.00;99412.66;5022560;28;19925;-82
2022/11/18 03:54:46;;;;;;;2.30;1.50;;;;;;;8.90;100.00;99423.16;5020679;28;20013;-81
2022/11/18 03:57:21;;;;;;;6.50;1.75;;;;;;;8.96;100.00;99430.75;5019222;28;20079;-81
2022/11/18 04:00:06;;;;;;;10.75;1.75;;;;;;;8.93;100.00;99428.31;5021162;28;20527;-80
2022/11/18 04:02:32;;;;;;;6.18;1.75;;;;;;;8.91;100.00;99430.34;5002779;28;20050;-81
2022/11/18 04:05:00;;;;;;;9.52;1.80;;;;;;;8.94;100.00;99436.38;4995181;28;20033;-81
2022/11/18 04:07:57;;;;;;;7.68;1.90;;;;;;;8.92;100.00;99448.44;5021426;28;20025;-79
2022/11/18 04:10:45;;;;;;;7.10;1.70;;;;;;;8.87;100.00;99443.44;5033976;28;20133;-81
2022/11/18 04:13:31;;;;;;;8.48;1.48;;;;;;;8.88;100.00;99450.59;5010771;28;20064;-81
2022/11/18 04:15:56;;;;;;;10.65;1.90;;;;;;;8.86;100.00;99449.88;5002540;28;20056;-80
2022/11/18 04:18:22;;;;;;;15.02;1.77;;;;;;;8.86;100.00;99455.34;5033546;28;20493;-81
2022/11/18 04:20:48;;;;;;;3.78;1.50;;;;;;;8.82;100.00;99456.63;5022886;28;20113;-81
2022/11/18 04:23:13;;;;;;;6.40;1.77;;;;;;;8.85;100.00;99456.34;5040576;28;20064;-82
2022/11/18 04:25:39;;;;;;;4.53;1.65;;;;;;;8.83;100.00;99469.28;5022652;28;20037;-82
2022/11/18 04:28:04;;;;;;;7.40;1.90;;;;;;;8.77;100.00;99473.47;5033809;28;20057;-82
2022/11/18 04:30:30;;;;;;;5.35;1.75;;;;;;;8.82;100.00;99478.47;5004456;28;20033;-81
2022/11/18 04:32:56;;;;;;;6.78;1.60;;;;;;;8.74;100.00;99481.94;5025797;28;20025;-81
2022/11/18 04:35:22;;;;;;;5.05;1.83;;;;;;;8.77;100.00;99484.38;5007911;28;20037;-81
2022/11/18 04:37:48;;;;;;;5.82;1.60;;;;;;;8.74;100.00;99483.78;5041785;28;20093;-80
2022/11/18 04:40:13;;;;;;;4.88;1.80;;;;;;;8.68;100.00;99479.78;5007130;28;20036;-81
2022/11/18 04:42:39;;;;;;;7.80;2.00;;;;;;;8.60;100.00;99476.91;5007262;28;20037;-81
2022/11/18 04:45:05;;;;;;;8.50;2.65;;;;;;;8.60;100.00;99476.91;5004368;28;20103;-81
2022/11/18 04:47:30;;;;;;;6.40;2.10;;;;;;;8.56;100.00;99476.31;5024034;28;20101;-80
2022/11/18 04:49:56;;;;;;;6.78;1.90;;;;;;;8.57;100.00;99490.81;4990868;28;20151;-81
2022/11/18 04:52:21;;;;;;;3.42;1.92;;;;;;;8.55;100.00;99499.13;5007173;28;20037;-80
2022/11/18 04:54:47;;;;;;;6.22;2.20;;;;;;;8.52;100.00;99493.13;5007538;28;20021;-81
2022/11/18 04:57:13;;;;;;;4.45;2.08;;;;;;;8.54;100.00;99502.88;5024438;28;20505;-83
2022/11/18 04:59:38;;;;;;;3.15;1.67;;;;;;;8.49;100.00;99499.69;5024372;28;20101;-81
2022/11/18 05:02:04;;;;;;;9.27;2.10;;;;;;;8.42;100.00;99501.25;5024782;28;20052;-82
2022/11/18 05:04:31;;;;;;;7.85;1.90;;;;;;;8.39;100.00;99498.81;4991877;28;20182;-82
2022/11/18 05:06:58;;;;;;;11.65;2.60;;;;;;;8.23;100.00;99475.69;5022807;28;20073;-82
2022/11/18 05:09:24;;;;;;;12.82;1.90;;;;;;;8.39;100.00;99502.38;5017678;28;20060;-81
2022/11/18 05:14:34;;;;;;;11.32;2.80;;;;;;;8.41;100.00;99524.94;5011394;28;20039;-81
2022/11/18 05:17:01;;;;;;;6.90;2.10;;;;;;;8.40;100.00;99525.94;4983813;28;20046;-81
2022/11/18 05:19:27;;;;;;;11.65;2.72;;;;;;;8.37;100.00;99528.94;4996151;28;20046;-81
2022/11/18 05:21:53;;;;;;;6.90;2.05;;;;;;;8.40;100.00;99528.66;4968260;28;20034;-80
2022/11/18 05:24:18;;;;;;;5.38;2.20;;;;;;;8.39;100.00;99535.13;4982017;28;20060;-79
2022/11/18 05:26:44;;;;;;;7.40;2.10;;;;;;;8.42;100.00;99533.97;5009175;28;20034;-80
2022/11/18 05:29:10;;;;;;;5.93;2.15;;;;;;;8.37;100.00;99528.94;4982744;28;20089;-81
2022/11/18 05:31:36;;;;;;;7.43;2.50;;;;;;;8.40;100.00;99541.44;4982784;28;20026;-80
2022/11/18 05:34:01;;;;;;;4.10;2.10;;;;;;;8.37;100.00;99542.56;5015524;28;20061;-80
2022/11/18 05:36:27;;;;;;;15.25;3.58;;;;;;;8.40;100.00;99544.19;4992631;28;20030;-80
2022/11/18 05:38:52;;;;;;;16.60;3.55;;;;;;;8.37;100.00;99547.19;4961609;28;20117;-79
2022/11/18 05:44:03;;;;;;;6.20;2.10;;;;;;;8.31;100.00;99547.72;4978554;28;20117;-79
2022/11/18 05:46:30;;;;;;;5.47;2.08;;;;;;;8.22;100.00;99553.03;4990332;28;20109;-80
2022/11/18 05:48:55;;;;;;;8.18;2.00;;;;;;;8.14;100.00;99555.56;5013124;28;20054;-79
2022/11/18 05:51:21;;;;;;;8.27;3.00;;;;;;;8.09;100.00;99555.97;4981204;28;20038;-80
2022/11/18 05:53:49;;;;;;;8.73;2.35;;;;;;;8.10;100.00;99556.88;4981760;28;20077;-79
2022/11/18 05:56:23;;;;;;;7.35;2.10;;;;;;;7.99;100.00;99559.69;5000351;28;20041;-81
2022/11/18 05:58:48;;;;;;;4.82;2.05;;;;;;;7.88;100.00;99561.50;4983634;28;20105;-80
2022/11/18 06:01:21;;;;;;;7.93;2.13;;;;;;;7.88;100.00;99558.75;4979091;28;20120;-81
2022/11/18 06:03:46;;;;;;;12.18;2.70;;;;;;;7.78;100.00;99565.19;4996833;28;20035;-81
2022/11/18 06:06:16;;;;;;;7.47;2.20;;;;;;;7.78;100.00;99571.50;4991039;28;20401;-83
2022/11/18 06:08:58;;;;;;;10.65;2.63;;;;;;;7.78;100.00;99582.38;5001152;28;20026;-81
2022/11/18 06:11:23;;;;;;;9.50;2.70;;;;;;;7.75;100.00;99577.19;5016065;28;20046;-81
2022/11/18 06:14:01;;;;;;;10.55;3.15;;;;;;;7.74;100.00;99580.94;5015304;28;20125;-81
2022/11/18 06:16:31;;;;;;;9.38;3.72;;;;;;;7.67;100.00;99583.34;5011691;28;20045;-81
2022/11/18 06:18:57;;;;;;;7.65;3.30;;;;;;;7.68;100.00;99589.66;5020114;28;20054;-81
2022/11/18 06:21:23;;;;;;;8.30;2.80;;;;;;;7.67;100.00;99596.97;5018529;28;20449;-81
2022/11/18 06:23:49;;;;;;;8.38;2.95;;;;;;;7.65;100.00;99592.63;5020382;28;20033;-81
2022/11/18 06:26:16;;;;;;;6.03;2.50;;;;;;;7.68;100.00;99606.00;5021194;28;20045;-81
2022/11/18 06:28:44;;;;;;;6.22;2.55;;;;;;;7.67;100.00;99609.69;5019331;28;20029;-81
2022/11/18 06:31:10;;;;;;;6.28;2.55;;;;;;;7.70;100.00;99615.75;5001002;28;20025;-81
2022/11/18 06:33:35;;;;;;;6.30;3.00;;;;;;;7.67;100.00;99612.44;5018833;28;20049;-80
2022/11/18 06:36:01;;;;;;;13.38;2.78;;;;;;;7.63;100.00;99622.72;5001497;28;20066;-81
2022/11/18 06:38:26;;;;;;;8.70;2.60;;;;;;;7.65;100.00;99617.16;4999488;28;20130;-81
2022/11/18 06:40:52;;;;;;;8.00;3.58;;;;;;;7.63;100.00;99622.72;5009201;28;20048;-81
2022/11/18 06:48:47;;;;;;;17.60;5.10;;;;;;;7.60;100.00;99630.31;5035398;28;20034;-81
2022/11/18 06:51:13;;;;;;;14.73;5.15;;;;;;;7.52;100.00;99630.97;5018167;28;20409;-81
2022/11/18 06:53:38;;;;;;;12.70;5.20;;;;;;;7.50;100.00;99633.81;5034625;28;20432;-80
2022/11/18 06:56:06;;;;;;;18.20;4.47;;;;;;;7.45;100.00;99644.25;5001609;28;20052;-81
2022/11/18 06:58:31;;;;;;;8.10;3.75;;;;;;;7.40;100.00;99632.91;5017217;28;20044;-80
2022/11/18 07:00:57;;;;;;;12.27;4.80;;;;;;;7.35;100.00;99648.78;5023174;28;20112;-80
2022/11/18 07:03:23;;;;;;;10.23;4.85;;;;;;;7.39;100.00;99652.09;5006617;28;20047;-81
2022/11/18 07:05:48;;;;;;;15.00;4.88;;;;;;;7.33;100.00;99648.03;4989457;28;20053;-81
2022/11/18 07:08:14;;;;;;;8.70;4.18;;;;;;;7.29;100.00;99661.03;5003631;28;20029;-80
2022/11/18 07:10:39;;;;;;;9.50;4.78;;;;;;;7.25;100.00;99656.00;5030269;28;20068;-81
2022/11/18 07:13:04;;;;;;;12.07;4.47;;;;;;;7.28;100.00;99667.50;5037391;28;20464;-82
2022/11/18 07:15:30;;;;;;;15.73;4.55;;;;;;;7.27;100.00;99663.03;4981650;28;20062;-83
2022/11/18 07:17:55;;;;;;;8.35;4.15;;;;;;;7.26;100.00;99663.16;4991311;28;20117;-81
2022/11/18 07:20:21;;;;;;;14.02;3.97;;;;;;;7.35;100.00;99673.28;5006338;28;20050;-79
2022/11/18 07:22:52;;;;;;;14.50;4.10;;;;;;;7.35;100.00;99678.72;5013990;28;20033;-79
2022/11/18 07:25:18;;;;;;;7.97;3.63;;;;;;;7.34;100.00;99687.88;5014450;28;20485;-79
2022/11/18 07:27:43;;;;;;;11.32;3.63;;;;;;;7.29;100.00;99685.53;4996075;28;20029;-79
2022/11/18 07:30:09;;;;;;;18.67;4.38;;;;;;;7.34;100.00;99690.59;5008040;28;20100;-80
2022/11/18 07:32:35;;;;;;;13.38;4.35;;;;;;;7.32;100.00;99693.44;5022899;28;20453;-79
2022/11/18 07:35:00;;;;;;;6.70;3.50;;;;;;;7.36;100.00;99703.09;5030251;28;20052;-79
2022/11/18 07:37:25;;;;;;;9.32;4.22;;;;;;;7.33;100.00;99702.50;4996757;28;20034;-79
2022/11/18 07:39:51;;;;;;;8.32;3.88;;;;;;;7.30;100.00;99700.88;5012026;28;20413;-79
2022/11/18 07:42:16;;;;;;;11.10;3.67;;;;;;;7.33;100.00;99708.81;5011716;28;20038;-80
2022/11/18 07:44:42;;;;;;;7.97;4.13;;;;;;;7.31;100.00;99712.63;5015035;28;20406;-79
2022/11/18 07:47:07;;;;;;;8.93;4.63;;;;;;;7.36;100.00;99718.53;5015628;28;20121;-79
2022/11/18 07:49:33;;;;;;;19.02;5.15;;;;;;;7.34;100.00;99704.22;5015409;28;20038;-79
2022/11/18 07:51:58;;;;;;;11.43;4.85;;;;;;;7.42;100.00;99712.59;5015297;28;20106;-80
2022/11/18 07:54:24;;;;;;;14.70;5.22;;;;;;;7.54;100.00;99727.91;5015536;28;20061;-80
2022/11/18 07:56:49;;;;;;;14.98;5.47;;;;;;;7.48;100.00;99720.25;5016346;28;20044;-80
2022/11/18 07:59:14;;;;;;;22.30;6.20;;;;;;;7.53;100.00;99728.88;5016556;28;20049;-80
2022/11/18 08:01:40;;;;;;;16.92;6.50;;;;;;;7.64;100.00;99730.72;5014114;28;20405;-81
2022/11/18 08:04:08;;;;;;;12.95;5.43;;;;;;;7.73;100.00;99738.09;5015719;28;20038;-80
2022/11/18 08:06:34;;;;;;;10.98;5.95;;;;;;;7.75;100.00;99748.00;5002096;28;20030;-80
2022/11/18 08:09:01;;;;;;;8.95;5.78;;;;;;;7.85;100.00;99738.88;5002886;28;21198;-81
2022/11/18 08:11:26;;;;;;;11.77;5.68;;;;;;;7.80;100.00;99743.00;5015760;28;20313;-81
2022/11/18 08:13:52;;;;;;;8.43;5.18;;;;;;;7.90;100.00;99744.84;5002461;28;20070;-81
2022/11/18 08:16:20;;;;;;;13.90;5.45;;;;;;;7.99;100.00;99753.22;4999861;28;20040;-81
2022/11/18 08:18:49;;;;;;;14.02;6.07;;;;;;;7.98;100.00;99751.47;4983869;28;20437;-81
2022/11/18 08:21:16;;;;;;;9.95;5.32;;;;;;;8.01;100.00;99753.94;4998931;28;20042;-81
2022/11/18 08:23:42;;;;;;;13.82;5.53;;;;;;;8.08;100.00;99757.84;5002552;28;20485;-81
2022/11/18 08:26:15;;;;;;;12.07;5.47;;;;;;;7.98;100.00;99730.53;4975423;28;20030;-81
2022/11/18 08:28:41;;;;;;;10.55;5.18;;;;;;;8.16;100.00;99762.66;5001061;28;20031;-81
2022/11/18 08:31:27;;;;;;;10.50;6.25;;;;;;;8.17;100.00;99757.06;5000071;28;20037;-81
2022/11/18 08:34:00;;;;;;;12.55;5.68;;;;;;;8.24;100.00;99765.56;4982332;28;20069;-81
2022/11/18 08:36:31;;;;;;;11.77;5.70;;;;;;;8.27;100.00;99757.13;5016971;28;20053;-81
2022/11/18 08:38:59;;;;;;;14.20;5.32;;;;;;;8.27;100.00;99768.88;4984504;28;20426;-81
2022/11/18 08:41:31;;;;;;;16.70;4.53;;;;;;;8.43;100.00;99762.13;5000402;28;20038;-79
2022/11/18 08:43:57;;;;;;;;;;;;;;;8.54;100.00;99769.34;4983904;28;20398;-81
2022/11/18 08:46:22;;;;;;;10.23;4.47;;;;;;;8.62;100.00;99767.69;5000475;28;19914;-81
2022/11/18 08:48:48;;;;;;;9.32;4.28;;;;;;;8.78;100.00;99767.19;4984285;28;20389;-80
2022/11/18 08:51:14;;;;;;;10.48;4.45;;;;;;;8.79;100.00;99774.38;4979471;28;20114;-81
2022/11/18 08:53:40;;;;;;;11.95;4.68;;;;;;;9.01;100.00;99786.94;4998616;28;20046;-80
2022/11/18 08:56:14;;;;;;;4.63;3.55;;;;;;;9.11;100.00;99789.72;4999286;28;20051;-81
2022/11/18 08:58:40;;;;;;;8.57;3.17;;;;;;;9.23;100.00;99793.22;5000082;28;20549;-81
2022/11/18 09:01:06;;;;;;;10.27;3.97;;;;;;;9.27;100.00;99789.19;5014892;28;20037;-81
2022/11/18 09:03:32;;;;;;;15.18;3.55;;;;;;;9.23;100.00;99790.50;5000293;28;20030;-81
2022/11/18 09:06:06;;;;;;;8.32;2.88;;;;;;;9.15;100.00;99787.56;5000417;28;20057;-82
2022/11/18 09:08:32;;;;;;;10.73;2.55;;;;;;;9.25;100.00;99790.31;5000691;28;20066;-81
2022/11/18 09:10:57;;;;;;;8.05;2.60;;;;;;;9.35;100.00;99803.03;4984110;28;20127;-81
2022/11/18 09:13:23;;;;;;;8.43;2.25;;;;;;;9.32;100.00;99800.56;5007243;28;20127;-81
2022/11/18 09:15:49;;;;;;;13.02;2.45;;;;;;;9.52;100.00;99809.66;5006021;28;20049;-81
2022/11/18 09:18:14;;;;;;;6.50;2.30;;;;;;;9.74;100.00;99805.81;5033079;28;20030;-81
2022/11/18 09:20:39;;;;;;;7.63;2.78;;;;;;;9.94;100.00;99812.16;5022176;28;20127;-81
2022/11/18 09:23:05;;;;;;;5.78;2.08;;;;;;;10.26;100.00;99815.59;5022448;28;20038;-82
2022/11/18 09:25:30;;;;;;;11.15;2.35;;;;;;;10.41;100.00;99822.41;4974706;28;20083;-81
2022/11/18 09:27:56;;;;;;;4.35;1.65;;;;;;;10.20;100.00;99821.66;5023262;28;20440;-81
2022/11/18 09:30:21;;;;;;;7.20;1.88;;;;;;;10.23;100.00;99827.72;4985320;28;20386;-81
2022/11/18 09:32:47;;;;;;;7.13;1.90;;;;;;;10.12;100.00;99817.78;5005865;28;20038;-81
2022/11/18 09:35:13;;;;;;;7.10;1.98;;;;;;;10.13;100.00;99832.31;5004553;28;20038;-81
2022/11/18 09:37:38;;;;;;;8.88;2.50;;;;;;;10.14;100.00;99835.94;4999785;28;20044;-81
2022/11/18 09:40:04;;;;;;;9.05;2.40;;;;;;;9.94;100.00;99833.19;5023975;28;20034;-81
2022/11/18 09:42:45;;;;;;;9.93;2.00;;;;;;;9.96;100.00;99842.09;5041636;28;20393;-81
2022/11/18 09:45:19;;;;;;;11.05;2.28;;;;;;;9.92;100.00;99844.25;5025100;28;20033;-81
2022/11/18 09:47:44;;;;;;;7.70;1.90;;;;;;;10.35;100.00;99839.41;5022947;28;20060;-81
2022/11/18 09:50:16;;;;;;;7.57;2.08;;;;;;;10.92;100.00;99852.25;5023075;28;20030;-81
2022/11/18 09:52:51;;;;;;;6.28;1.80;;;;;;;11.13;100.00;99844.66;4987109;28;20386;-82
2022/11/18 09:55:18;;;;;;;12.93;2.35;;;;;;;10.94;100.00;99850.25;4990334;28;20505;-82
2022/11/18 09:57:47;;;;;;;9.85;2.42;;;;;;;11.01;100.00;99859.59;5004995;28;20038;-82
2022/11/18 10:00:21;;;;;;;7.85;2.25;;;;;;;10.89;100.00;99864.38;5008920;28;20029;-82
2022/11/18 10:02:54;;;;;;;11.70;2.17;;;;;;;10.78;100.00;99868.13;5024553;28;20029;-81
2022/11/18 10:05:24;;;;;;;7.78;2.58;;;;;;;10.72;100.00;99865.97;5007318;28;20025;-82
2022/11/18 10:08:22;;;;;;;7.18;2.15;;;;;;;10.77;100.00;99876.50;5041781;28;20041;-80
2022/11/18 10:11:09;;;;;;;8.93;1.88;;;;;;;10.81;100.00;99878.81;5019130;28;20417;-82
2022/11/18 10:13:56;;;;;;;9.65;1.95;;;;;;;11.04;100.00;99881.19;4999476;28;20132;-81
2022/11/18 10:16:55;;;;;;;10.02;2.22;;;;;;;11.20;100.00;99880.59;4983138;28;20038;-81
2022/11/18 10:19:39;;;;;;;7.03;2.15;;;;;;;11.17;100.00;99879.00;4999397;28;20030;-81
2022/11/18 10:22:17;;;;;;;5.18;1.65;;;;;;;11.02;100.00;99886.81;4999470;28;20026;-81
2022/11/18 10:24:56;;;;;;;9.45;1.98;;;;;;;11.17;100.00;99891.84;4982525;28;20034;-82
2022/11/18 10:27:32;;;;;;;6.82;2.05;;;;;;;11.09;100.00;99897.19;5001418;28;20084;-81
2022/11/18 10:30:00;;;;;;;12.18;2.00;;;;;;;11.23;100.00;99896.69;4999810;28;20034;-81
2022/11/18 10:32:26;;;;;;;6.80;1.90;;;;;;;11.25;100.00;99911.13;4966812;28;20042;-82
2022/11/18 10:34:57;;;;;;;10.23;2.15;;;;;;;11.45;100.00;99909.19;4999258;28;20114;-81
2022/11/18 10:37:30;;;;;;;7.30;1.75;;;;;;;11.88;100.00;99904.06;4983124;28;20438;-82
2022/11/18 10:39:56;;;;;;;;;;;;;;;11.62;100.00;99901.16;4982897;28;20121;-80
2022/11/18 10:42:44;;;;;;;9.70;2.38;;;;;;;11.17;100.00;99902.78;4982889;28;19964;-81
2022/11/18 10:45:22;;;;;;;9.35;1.63;;;;;;;10.83;100.00;99911.50;4999840;28;20034;-82
2022/11/18 10:48:08;;;;;;;11.13;2.08;;;;;;;10.82;100.00;99918.00;5015186;28;20038;-82
2022/11/18 10:50:38;;;;;;;11.45;2.05;;;;;;;11.03;100.00;99920.56;5014816;28;20045;-82
2022/11/18 10:53:05;;;;;;;11.20;1.67;;;;;;;10.91;100.00;99921.75;4982546;28;20030;-82
2022/11/18 10:55:32;;;;;;;9.07;2.00;;;;;;;11.21;100.00;99920.66;4982239;28;20030;-82
2022/11/18 10:58:12;;;;;;;3.90;1.65;;;;;;;10.88;100.00;99927.50;4995854;28;20039;-82
2022/11/18 11:00:41;;;;;;;7.82;1.58;;;;;;;10.62;100.00;99922.63;4983695;28;20105;-82
2022/11/18 11:03:27;;;;;;;11.18;2.05;;;;;;;10.55;100.00;99924.22;4998877;28;20030;-82
2022/11/18 11:06:11;;;;;;;7.97;1.83;;;;;;;10.44;100.00;99917.88;4998908;28;20066;-82
2022/11/18 11:08:46;;;;;;;8.00;1.83;;;;;;;10.60;100.00;99921.91;4998269;28;20053;-82
2022/11/18 11:11:24;;;;;;;11.13;2.28;;;;;;;10.81;100.00;99921.75;5000830;28;20046;-82
2022/11/18 11:13:53;;;;;;;10.35;2.15;;;;;;;11.08;100.00;99922.84;5038937;28;20037;-82
2022/11/18 11:16:20;;;;;;;8.80;2.00;;;;;;;10.87;100.00;99934.00;5020750;28;20037;-82
2022/11/18 11:18:54;;;;;;;9.63;1.75;;;;;;;10.74;100.00;99934.28;5017440;28;20398;-82
2022/11/18 11:21:21;;;;;;;5.05;1.90;;;;;;;10.69;100.00;99925.66;5001636;28;20025;-82
2022/11/18 11:23:47;;;;;;;12.75;2.22;;;;;;;10.74;100.00;99937.91;4989857;28;20034;-82
2022/11/18 11:26:25;;;;;;;11.25;2.22;;;;;;;10.79;100.00;99927.38;5017589;28;20133;-82
2022/11/18 11:29:06;;;;;;;10.13;2.40;;;;;;;10.68;100.00;99933.00;5018241;28;20137;-82
2022/11/18 11:31:43;;;;;;;15.05;2.53;;;;;;;10.68;100.00;99932.16;4996243;28;20389;-82
2022/11/18 11:34:30;;;;;;;13.63;2.85;;;;;;;10.60;100.00;99946.56;5029668;28;20029;-82
2022/11/18 11:37:14;;;;;;;9.20;2.35;;;;;;;10.51;100.00;99939.19;5023699;28;20040;-82
2022/11/18 11:39:51;;;;;;;9.23;2.33;;;;;;;10.36;100.00;99941.50;5028528;28;20037;-82
2022/11/18 11:42:50;;;;;;;11.48;2.88;;;;;;;10.28;100.00;99943.06;5026299;28;20029;-82
2022/11/18 11:45:16;;;;;;;9.52;2.20;;;;;;;10.24;100.00;99940.75;5043247;28;20112;-82
2022/11/18 11:48:17;;;;;;;10.50;2.40;;;;;;;10.17;100.00;99936.84;5027730;28;20071;-82
2022/11/18 11:50:57;;;;;;;11.02;2.60;;;;;;;10.30;100.00;99937.44;5020766;28;20072;-82
2022/11/18 11:53:41;;;;;;;8.82;2.13;;;;;;;10.29;100.00;99942.03;5026881;28;20036;-82
2022/11/18 11:56:18;;;;;;;6.90;2.40;;;;;;;10.51;100.00;99942.81;5026770;28;20065;-82
2022/11/18 11:59:02;;;;;;;8.45;2.65;;;;;;;10.50;100.00;99945.69;4997108;28;20104;-82
2022/11/18 12:01:53;;;;;;;13.38;2.50;;;;;;;10.52;100.00;99940.94;5027607;28;20049;-82